sensor_id;sensor_type;location;lat;lon;timestamp;temperature;humidity
52034;DHT22;38045;52.988;6.536;2023-03-30T00:02:09;11.40;99.90
52034;DHT22;38045;52.988;6.536;2023-03-30T00:04:35;11.30;99.90
52034;DHT22;38045;52.988;6.536;2023-03-30T00:07:01;11.30;99.90
52034;DHT22;38045;52.988;6.536;2023-03-30T00:09:29;11.30;99.90
52034;DHT22;38045;52.988;6.536;2023-03-30T00:11:55;11.40;99.90
52034;DHT22;38045;52.988;6.536;2023-03-30T00:14:21;11.40;99.90
52034;DHT22;38045;52.988;6.536;2023-03-30T00:16:54;11.40;99.90
52034;DHT22;38045;52.988;6.536;2023-03-30T00:19:20;11.40;99.90
52034;DHT22;38045;52.988;6.536;2023-03-30T00:21:46;11.40;99.90
52034;DHT22;38045;52.988;6.536;2023-03-30T00:24:12;11.40;99.90
52034;DHT22;38045;52.988;6.536;2023-03-30T00:26:37;11.40;99.90
52034;DHT22;38045;52.988;6.536;2023-03-30T00:29:03;11.40;99.90
52034;DHT22;38045;52.988;6.536;2023-03-30T00:31:29;11.40;99.90
52034;DHT22;38045;52.988;6.536;2023-03-30T00:33:54;11.40;99.90
52034;DHT22;38045;52.988;6.536;2023-03-30T00:36:20;11.60;99.90
52034;DHT22;38045;52.988;6.536;2023-03-30T00:38:47;11.50;99.90
52034;DHT22;38045;52.988;6.536;2023-03-30T00:41:13;11.60;99.90
52034;DHT22;38045;52.988;6.536;2023-03-30T00:44:02;11.70;99.90
52034;DHT22;38045;52.988;6.536;2023-03-30T00:46:30;11.70;99.90
52034;DHT22;38045;52.988;6.536;2023-03-30T00:49:07;11.80;99.90
52034;DHT22;38045;52.988;6.536;2023-03-30T00:51:36;11.80;99.90
52034;DHT22;38045;52.988;6.536;2023-03-30T00:54:11;11.80;99.90
52034;DHT22;38045;52.988;6.536;2023-03-30T00:56:39;11.80;99.90
52034;DHT22;38045;52.988;6.536;2023-03-30T00:59:05;11.80;99.90
52034;DHT22;38045;52.988;6.536;2023-03-30T01:01:31;11.70;99.90
52034;DHT22;38045;52.988;6.536;2023-03-30T01:04:03;11.70;99.90
52034;DHT22;38045;52.988;6.536;2023-03-30T01:06:30;11.80;99.90
52034;DHT22;38045;52.988;6.536;2023-03-30T01:08:57;11.80;99.90
52034;DHT22;38045;52.988;6.536;2023-03-30T01:11:24;11.90;99.90
52034;DHT22;38045;52.988;6.536;2023-03-30T01:13:56;11.90;99.90
52034;DHT22;38045;52.988;6.536;2023-03-30T01:16:56;11.90;99.90
52034;DHT22;38045;52.988;6.536;2023-03-30T01:31:47;12.00;99.90
52034;DHT22;38045;52.988;6.536;2023-03-30T01:45:44;12.10;99.90
52034;DHT22;38045;52.988;6.536;2023-03-30T01:50:58;12.10;99.90
52034;DHT22;38045;52.988;6.536;2023-03-30T01:53:29;12.00;99.90
52034;DHT22;38045;52.988;6.536;2023-03-30T01:56:02;12.00;99.90
52034;DHT22;38045;52.988;6.536;2023-03-30T01:58:32;12.00;99.90
52034;DHT22;38045;52.988;6.536;2023-03-30T02:01:00;12.00;99.90
52034;DHT22;38045;52.988;6.536;2023-03-30T02:03:28;12.00;99.90
52034;DHT22;38045;52.988;6.536;2023-03-30T02:06:01;12.00;99.90
52034;DHT22;38045;52.988;6.536;2023-03-30T02:08:30;12.00;99.90
52034;DHT22;38045;52.988;6.536;2023-03-30T02:10:57;12.10;99.90
52034;DHT22;38045;52.988;6.536;2023-03-30T02:13:25;12.00;99.90
52034;DHT22;38045;52.988;6.536;2023-03-30T02:15:58;12.00;99.90
52034;DHT22;38045;52.988;6.536;2023-03-30T02:18:24;12.00;99.90
52034;DHT22;38045;52.988;6.536;2023-03-30T02:20:49;11.90;99.90
52034;DHT22;38045;52.988;6.536;2023-03-30T02:23:20;11.90;99.90
52034;DHT22;38045;52.988;6.536;2023-03-30T02:25:47;11.90;99.90
52034;DHT22;38045;52.988;6.536;2023-03-30T02:28:14;11.90;99.90
52034;DHT22;38045;52.988;6.536;2023-03-30T02:30:43;11.80;99.90
52034;DHT22;38045;52.988;6.536;2023-03-30T02:33:18;11.90;99.90
52034;DHT22;38045;52.988;6.536;2023-03-30T02:44:27;12.00;99.90
52034;DHT22;38045;52.988;6.536;2023-03-30T02:47:13;12.00;99.90
52034;DHT22;38045;52.988;6.536;2023-03-30T02:49:54;12.00;99.90
52034;DHT22;38045;52.988;6.536;2023-03-30T02:52:47;12.00;99.90
52034;DHT22;38045;52.988;6.536;2023-03-30T02:58:11;12.00;99.90
52034;DHT22;38045;52.988;6.536;2023-03-30T03:03:17;12.00;99.90
52034;DHT22;38045;52.988;6.536;2023-03-30T03:05:44;12.00;99.90
52034;DHT22;38045;52.988;6.536;2023-03-30T03:08:13;12.00;99.90
52034;DHT22;38045;52.988;6.536;2023-03-30T03:10:39;11.90;99.90
52034;DHT22;38045;52.988;6.536;2023-03-30T03:13:05;11.90;99.90
52034;DHT22;38045;52.988;6.536;2023-03-30T03:15:32;11.90;99.90
52034;DHT22;38045;52.988;6.536;2023-03-30T03:17:58;11.90;99.90
52034;DHT22;38045;52.988;6.536;2023-03-30T03:20:25;11.80;99.90
52034;DHT22;38045;52.988;6.536;2023-03-30T03:22:54;11.80;99.90
52034;DHT22;38045;52.988;6.536;2023-03-30T03:25:20;11.70;99.90
52034;DHT22;38045;52.988;6.536;2023-03-30T03:27:46;11.80;99.90
52034;DHT22;38045;52.988;6.536;2023-03-30T03:30:12;11.80;99.90
52034;DHT22;38045;52.988;6.536;2023-03-30T03:32:38;11.70;99.90
52034;DHT22;38045;52.988;6.536;2023-03-30T03:35:04;11.80;99.90
52034;DHT22;38045;52.988;6.536;2023-03-30T03:37:30;11.80;99.90
52034;DHT22;38045;52.988;6.536;2023-03-30T03:39:56;11.80;99.90
52034;DHT22;38045;52.988;6.536;2023-03-30T03:42:21;11.80;99.90
52034;DHT22;38045;52.988;6.536;2023-03-30T03:44:47;11.80;99.90
52034;DHT22;38045;52.988;6.536;2023-03-30T03:47:13;11.80;99.90
52034;DHT22;38045;52.988;6.536;2023-03-30T03:49:39;11.70;99.90
52034;DHT22;38045;52.988;6.536;2023-03-30T03:52:04;11.70;99.90
52034;DHT22;38045;52.988;6.536;2023-03-30T03:54:31;11.70;99.90
52034;DHT22;38045;52.988;6.536;2023-03-30T03:56:56;11.70;99.90
52034;DHT22;38045;52.988;6.536;2023-03-30T03:59:22;11.80;99.90
52034;DHT22;38045;52.988;6.536;2023-03-30T04:01:48;11.80;99.90
52034;DHT22;38045;52.988;6.536;2023-03-30T04:04:13;11.80;99.90
52034;DHT22;38045;52.988;6.536;2023-03-30T04:06:39;11.90;99.90
52034;DHT22;38045;52.988;6.536;2023-03-30T04:09:04;12.10;99.90
52034;DHT22;38045;52.988;6.536;2023-03-30T04:11:30;12.00;99.90
52034;DHT22;38045;52.988;6.536;2023-03-30T04:13:56;11.90;99.90
52034;DHT22;38045;52.988;6.536;2023-03-30T04:16:21;11.90;99.90
52034;DHT22;38045;52.988;6.536;2023-03-30T04:18:47;11.80;99.90
52034;DHT22;38045;52.988;6.536;2023-03-30T04:21:12;11.80;99.90
52034;DHT22;38045;52.988;6.536;2023-03-30T04:23:38;11.80;99.90
52034;DHT22;38045;52.988;6.536;2023-03-30T04:26:06;11.80;99.90
52034;DHT22;38045;52.988;6.536;2023-03-30T04:28:33;11.80;99.90
52034;DHT22;38045;52.988;6.536;2023-03-30T04:31:02;11.80;99.90
52034;DHT22;38045;52.988;6.536;2023-03-30T04:33:28;11.80;99.90
52034;DHT22;38045;52.988;6.536;2023-03-30T04:35:54;11.90;99.90
52034;DHT22;38045;52.988;6.536;2023-03-30T04:38:20;11.90;99.90
52034;DHT22;38045;52.988;6.536;2023-03-30T04:40:52;12.00;99.90
52034;DHT22;38045;52.988;6.536;2023-03-30T04:43:18;12.00;99.90
52034;DHT22;38045;52.988;6.536;2023-03-30T04:45:47;12.10;99.90
52034;DHT22;38045;52.988;6.536;2023-03-30T04:48:13;12.20;99.90
52034;DHT22;38045;52.988;6.536;2023-03-30T04:50:39;12.20;99.90
52034;DHT22;38045;52.988;6.536;2023-03-30T04:53:05;12.30;99.90
52034;DHT22;38045;52.988;6.536;2023-03-30T04:55:31;12.40;99.90
52034;DHT22;38045;52.988;6.536;2023-03-30T04:57:56;12.50;99.90
52034;DHT22;38045;52.988;6.536;2023-03-30T05:00:22;12.40;99.90
52034;DHT22;38045;52.988;6.536;2023-03-30T05:02:47;12.50;99.90
52034;DHT22;38045;52.988;6.536;2023-03-30T05:05:13;12.50;99.90
52034;DHT22;38045;52.988;6.536;2023-03-30T05:07:39;12.50;99.90
52034;DHT22;38045;52.988;6.536;2023-03-30T05:10:05;12.50;99.90
52034;DHT22;38045;52.988;6.536;2023-03-30T05:12:31;12.50;99.90
52034;DHT22;38045;52.988;6.536;2023-03-30T05:14:56;12.40;99.90
52034;DHT22;38045;52.988;6.536;2023-03-30T05:17:22;12.30;99.90
52034;DHT22;38045;52.988;6.536;2023-03-30T05:19:47;12.20;99.90
52034;DHT22;38045;52.988;6.536;2023-03-30T05:22:14;12.20;99.90
52034;DHT22;38045;52.988;6.536;2023-03-30T05:24:39;12.10;99.90
52034;DHT22;38045;52.988;6.536;2023-03-30T05:27:05;12.00;99.90
52034;DHT22;38045;52.988;6.536;2023-03-30T05:29:31;11.80;99.90
52034;DHT22;38045;52.988;6.536;2023-03-30T05:31:57;11.70;99.90
52034;DHT22;38045;52.988;6.536;2023-03-30T05:34:22;11.70;99.90
52034;DHT22;38045;52.988;6.536;2023-03-30T05:36:48;11.70;99.90
52034;DHT22;38045;52.988;6.536;2023-03-30T05:39:14;11.60;99.90
52034;DHT22;38045;52.988;6.536;2023-03-30T05:41:39;11.60;99.90
52034;DHT22;38045;52.988;6.536;2023-03-30T05:44:05;11.60;99.90
52034;DHT22;38045;52.988;6.536;2023-03-30T05:46:31;11.60;99.90
52034;DHT22;38045;52.988;6.536;2023-03-30T05:48:57;11.60;99.90
52034;DHT22;38045;52.988;6.536;2023-03-30T05:51:23;11.60;99.90
52034;DHT22;38045;52.988;6.536;2023-03-30T05:53:48;11.60;99.90
52034;DHT22;38045;52.988;6.536;2023-03-30T05:56:14;11.60;99.90
52034;DHT22;38045;52.988;6.536;2023-03-30T05:58:40;11.60;99.90
52034;DHT22;38045;52.988;6.536;2023-03-30T06:01:06;11.50;99.90
52034;DHT22;38045;52.988;6.536;2023-03-30T06:03:33;11.50;99.90
52034;DHT22;38045;52.988;6.536;2023-03-30T06:05:59;11.60;99.90
52034;DHT22;38045;52.988;6.536;2023-03-30T06:08:25;11.70;99.90
52034;DHT22;38045;52.988;6.536;2023-03-30T06:10:55;11.70;99.90
52034;DHT22;38045;52.988;6.536;2023-03-30T06:13:21;11.70;99.90
52034;DHT22;38045;52.988;6.536;2023-03-30T06:15:47;11.80;99.90
52034;DHT22;38045;52.988;6.536;2023-03-30T06:18:13;11.80;99.90
52034;DHT22;38045;52.988;6.536;2023-03-30T06:20:39;11.90;99.90
52034;DHT22;38045;52.988;6.536;2023-03-30T06:23:05;11.90;99.90
52034;DHT22;38045;52.988;6.536;2023-03-30T06:25:31;12.00;99.90
52034;DHT22;38045;52.988;6.536;2023-03-30T06:27:56;12.00;99.90
52034;DHT22;38045;52.988;6.536;2023-03-30T06:30:22;12.00;99.90
52034;DHT22;38045;52.988;6.536;2023-03-30T06:32:47;12.00;99.90
52034;DHT22;38045;52.988;6.536;2023-03-30T06:35:13;12.10;99.90
52034;DHT22;38045;52.988;6.536;2023-03-30T06:37:40;12.10;99.90
52034;DHT22;38045;52.988;6.536;2023-03-30T06:40:07;12.10;99.90
52034;DHT22;38045;52.988;6.536;2023-03-30T06:42:42;12.30;99.90
52034;DHT22;38045;52.988;6.536;2023-03-30T06:45:12;12.30;99.90
52034;DHT22;38045;52.988;6.536;2023-03-30T06:47:38;12.40;99.90
52034;DHT22;38045;52.988;6.536;2023-03-30T06:50:06;12.50;99.90
52034;DHT22;38045;52.988;6.536;2023-03-30T06:52:35;12.60;99.90
52034;DHT22;38045;52.988;6.536;2023-03-30T06:55:01;12.70;99.90
52034;DHT22;38045;52.988;6.536;2023-03-30T06:57:27;12.80;99.90
52034;DHT22;38045;52.988;6.536;2023-03-30T06:59:53;12.90;99.90
52034;DHT22;38045;52.988;6.536;2023-03-30T07:02:18;12.90;99.90
52034;DHT22;38045;52.988;6.536;2023-03-30T07:04:44;12.90;99.90
52034;DHT22;38045;52.988;6.536;2023-03-30T07:07:11;12.90;99.90
52034;DHT22;38045;52.988;6.536;2023-03-30T07:09:37;12.90;99.90
52034;DHT22;38045;52.988;6.536;2023-03-30T07:12:03;12.90;99.90
52034;DHT22;38045;52.988;6.536;2023-03-30T07:14:29;12.80;99.90
52034;DHT22;38045;52.988;6.536;2023-03-30T07:16:55;12.70;99.90
52034;DHT22;38045;52.988;6.536;2023-03-30T07:19:22;12.70;99.90
52034;DHT22;38045;52.988;6.536;2023-03-30T07:21:47;12.70;99.90
52034;DHT22;38045;52.988;6.536;2023-03-30T07:24:13;12.60;99.90
52034;DHT22;38045;52.988;6.536;2023-03-30T07:26:39;12.60;99.90
52034;DHT22;38045;52.988;6.536;2023-03-30T07:29:04;12.50;99.90
52034;DHT22;38045;52.988;6.536;2023-03-30T07:31:31;12.50;99.90
52034;DHT22;38045;52.988;6.536;2023-03-30T07:33:56;12.60;99.90
52034;DHT22;38045;52.988;6.536;2023-03-30T07:36:22;12.50;99.90
52034;DHT22;38045;52.988;6.536;2023-03-30T07:38:48;12.50;99.90
52034;DHT22;38045;52.988;6.536;2023-03-30T07:41:14;12.50;99.90
52034;DHT22;38045;52.988;6.536;2023-03-30T07:43:40;12.40;99.90
52034;DHT22;38045;52.988;6.536;2023-03-30T07:46:07;12.50;99.90
52034;DHT22;38045;52.988;6.536;2023-03-30T07:48:33;12.40;99.90
52034;DHT22;38045;52.988;6.536;2023-03-30T07:51:10;12.50;99.90
52034;DHT22;38045;52.988;6.536;2023-03-30T07:53:37;12.40;99.90
52034;DHT22;38045;52.988;6.536;2023-03-30T07:56:03;12.50;99.90
52034;DHT22;38045;52.988;6.536;2023-03-30T07:58:29;12.40;99.90
52034;DHT22;38045;52.988;6.536;2023-03-30T08:00:56;12.30;99.90
52034;DHT22;38045;52.988;6.536;2023-03-30T08:03:22;12.30;99.90
52034;DHT22;38045;52.988;6.536;2023-03-30T08:05:54;12.30;99.90
52034;DHT22;38045;52.988;6.536;2023-03-30T08:08:21;12.30;99.90
52034;DHT22;38045;52.988;6.536;2023-03-30T08:10:46;12.30;99.90
52034;DHT22;38045;52.988;6.536;2023-03-30T08:13:12;12.30;99.90
52034;DHT22;38045;52.988;6.536;2023-03-30T08:15:38;12.30;99.90
52034;DHT22;38045;52.988;6.536;2023-03-30T08:18:04;12.30;99.90
52034;DHT22;38045;52.988;6.536;2023-03-30T08:20:35;12.20;99.90
52034;DHT22;38045;52.988;6.536;2023-03-30T08:23:02;12.10;99.90
52034;DHT22;38045;52.988;6.536;2023-03-30T08:25:28;12.10;99.90
52034;DHT22;38045;52.988;6.536;2023-03-30T08:27:54;12.00;99.90
52034;DHT22;38045;52.988;6.536;2023-03-30T08:30:20;12.00;99.90
52034;DHT22;38045;52.988;6.536;2023-03-30T08:32:46;12.00;99.90
52034;DHT22;38045;52.988;6.536;2023-03-30T08:35:12;12.00;99.90
52034;DHT22;38045;52.988;6.536;2023-03-30T08:37:38;12.00;99.90
52034;DHT22;38045;52.988;6.536;2023-03-30T08:40:05;12.00;99.90
52034;DHT22;38045;52.988;6.536;2023-03-30T08:45:13;11.90;99.90
52034;DHT22;38045;52.988;6.536;2023-03-30T08:47:42;11.90;99.90
52034;DHT22;38045;52.988;6.536;2023-03-30T08:50:15;11.80;99.90
52034;DHT22;38045;52.988;6.536;2023-03-30T08:52:42;11.90;99.90
52034;DHT22;38045;52.988;6.536;2023-03-30T08:55:33;11.80;99.90
52034;DHT22;38045;52.988;6.536;2023-03-30T08:58:38;11.90;99.90
52034;DHT22;38045;52.988;6.536;2023-03-30T09:06:54;12.00;99.90
52034;DHT22;38045;52.988;6.536;2023-03-30T09:09:23;12.10;99.90
52034;DHT22;38045;52.988;6.536;2023-03-30T09:11:58;12.10;99.90
52034;DHT22;38045;52.988;6.536;2023-03-30T09:14:47;12.20;99.90
52034;DHT22;38045;52.988;6.536;2023-03-30T09:17:20;12.20;99.90
52034;DHT22;38045;52.988;6.536;2023-03-30T09:22:19;12.30;99.90
52034;DHT22;38045;52.988;6.536;2023-03-30T09:24:45;12.50;99.90
52034;DHT22;38045;52.988;6.536;2023-03-30T09:27:31;12.50;99.90
52034;DHT22;38045;52.988;6.536;2023-03-30T09:30:02;12.70;99.90
52034;DHT22;38045;52.988;6.536;2023-03-30T09:32:40;12.70;99.90
52034;DHT22;38045;52.988;6.536;2023-03-30T09:35:20;12.70;99.90
52034;DHT22;38045;52.988;6.536;2023-03-30T09:37:46;12.70;99.90
52034;DHT22;38045;52.988;6.536;2023-03-30T09:43:03;13.00;99.90
52034;DHT22;38045;52.988;6.536;2023-03-30T09:45:32;13.00;99.90
52034;DHT22;38045;52.988;6.536;2023-03-30T09:48:06;12.90;99.90
52034;DHT22;38045;52.988;6.536;2023-03-30T09:50:40;12.90;99.90
52034;DHT22;38045;52.988;6.536;2023-03-30T09:53:22;12.90;99.90
52034;DHT22;38045;52.988;6.536;2023-03-30T09:56:09;12.90;99.90
52034;DHT22;38045;52.988;6.536;2023-03-30T09:58:36;12.90;99.90
52034;DHT22;38045;52.988;6.536;2023-03-30T10:03:28;12.80;99.90
52034;DHT22;38045;52.988;6.536;2023-03-30T10:06:02;12.80;99.90
52034;DHT22;38045;52.988;6.536;2023-03-30T10:08:29;12.80;99.90
52034;DHT22;38045;52.988;6.536;2023-03-30T10:10:58;12.80;99.90
52034;DHT22;38045;52.988;6.536;2023-03-30T10:13:45;12.80;99.90
52034;DHT22;38045;52.988;6.536;2023-03-30T10:16:31;12.80;99.90
52034;DHT22;38045;52.988;6.536;2023-03-30T10:19:02;12.80;99.90
52034;DHT22;38045;52.988;6.536;2023-03-30T10:21:36;12.80;99.90
52034;DHT22;38045;52.988;6.536;2023-03-30T10:24:06;12.80;99.90
52034;DHT22;38045;52.988;6.536;2023-03-30T10:26:45;12.90;99.90
52034;DHT22;38045;52.988;6.536;2023-03-30T10:29:13;13.00;99.90
52034;DHT22;38045;52.988;6.536;2023-03-30T10:31:44;12.90;99.90
52034;DHT22;38045;52.988;6.536;2023-03-30T10:36:59;13.00;99.90
52034;DHT22;38045;52.988;6.536;2023-03-30T10:39:31;13.00;99.90
52034;DHT22;38045;52.988;6.536;2023-03-30T10:41:59;13.10;99.90
52034;DHT22;38045;52.988;6.536;2023-03-30T10:44:30;13.10;99.90
52034;DHT22;38045;52.988;6.536;2023-03-30T10:50:03;13.20;99.90
52034;DHT22;38045;52.988;6.536;2023-03-30T11:03:21;13.30;99.90
52034;DHT22;38045;52.988;6.536;2023-03-30T11:05:51;13.30;99.90
52034;DHT22;38045;52.988;6.536;2023-03-30T11:08:28;13.40;99.90
52034;DHT22;38045;52.988;6.536;2023-03-30T11:10:57;13.40;99.90
52034;DHT22;38045;52.988;6.536;2023-03-30T11:13:36;13.50;99.90
52034;DHT22;38045;52.988;6.536;2023-03-30T11:16:24;13.50;99.90
52034;DHT22;38045;52.988;6.536;2023-03-30T11:21:32;13.70;99.90
52034;DHT22;38045;52.988;6.536;2023-03-30T11:24:19;13.70;99.90
52034;DHT22;38045;52.988;6.536;2023-03-30T11:37:57;13.50;99.90
52034;DHT22;38045;52.988;6.536;2023-03-30T11:40:37;14.30;99.90
52034;DHT22;38045;52.988;6.536;2023-03-30T11:43:17;14.40;99.90
52034;DHT22;38045;52.988;6.536;2023-03-30T11:46:00;14.50;99.90
52034;DHT22;38045;52.988;6.536;2023-03-30T11:48:45;14.50;99.90
52034;DHT22;38045;52.988;6.536;2023-03-30T11:53:59;14.60;99.90
52034;DHT22;38045;52.988;6.536;2023-03-30T11:57:07;14.50;99.90
52034;DHT22;38045;52.988;6.536;2023-03-30T12:05:20;14.70;99.90
52034;DHT22;38045;52.988;6.536;2023-03-30T12:10:36;14.80;99.90
52034;DHT22;38045;52.988;6.536;2023-03-30T12:13:03;14.60;99.90
52034;DHT22;38045;52.988;6.536;2023-03-30T12:15:46;14.40;99.90
52034;DHT22;38045;52.988;6.536;2023-03-30T12:18:38;14.30;99.90
52034;DHT22;38045;52.988;6.536;2023-03-30T12:21:31;14.30;99.90
52034;DHT22;38045;52.988;6.536;2023-03-30T12:24:08;14.20;99.90
52034;DHT22;38045;52.988;6.536;2023-03-30T12:26:38;14.20;99.90
52034;DHT22;38045;52.988;6.536;2023-03-30T12:34:31;14.30;99.90
52034;DHT22;38045;52.988;6.536;2023-03-30T12:39:40;14.20;99.90
52034;DHT22;38045;52.988;6.536;2023-03-30T12:42:24;14.40;99.90
52034;DHT22;38045;52.988;6.536;2023-03-30T12:45:04;14.40;99.90
52034;DHT22;38045;52.988;6.536;2023-03-30T12:53:12;14.50;99.90
52034;DHT22;38045;52.988;6.536;2023-03-30T12:55:45;14.50;99.90
52034;DHT22;38045;52.988;6.536;2023-03-30T12:58:40;14.30;99.90
52034;DHT22;38045;52.988;6.536;2023-03-30T13:01:43;14.20;99.90
52034;DHT22;38045;52.988;6.536;2023-03-30T13:04:20;14.10;99.90
52034;DHT22;38045;52.988;6.536;2023-03-30T13:07:02;13.80;99.90
52034;DHT22;38045;52.988;6.536;2023-03-30T13:09:32;13.90;99.90
52034;DHT22;38045;52.988;6.536;2023-03-30T13:29:51;14.10;99.90
52034;DHT22;38045;52.988;6.536;2023-03-30T13:35:18;14.00;99.90
52034;DHT22;38045;52.988;6.536;2023-03-30T13:40:43;14.10;99.90
52034;DHT22;38045;52.988;6.536;2023-03-30T13:45:56;13.90;99.90
52034;DHT22;38045;52.988;6.536;2023-03-30T13:48:37;13.90;99.90
52034;DHT22;38045;52.988;6.536;2023-03-30T13:51:04;14.00;99.90
52034;DHT22;38045;52.988;6.536;2023-03-30T13:53:42;13.90;99.90
52034;DHT22;38045;52.988;6.536;2023-03-30T13:56:09;14.00;99.90
52034;DHT22;38045;52.988;6.536;2023-03-30T13:58:36;14.00;99.90
52034;DHT22;38045;52.988;6.536;2023-03-30T14:01:11;14.00;99.90
52034;DHT22;38045;52.988;6.536;2023-03-30T14:03:41;13.90;99.90
52034;DHT22;38045;52.988;6.536;2023-03-30T14:08:50;13.90;99.90
52034;DHT22;38045;52.988;6.536;2023-03-30T14:11:28;13.90;99.90
52034;DHT22;38045;52.988;6.536;2023-03-30T14:13:57;13.90;99.90
52034;DHT22;38045;52.988;6.536;2023-03-30T14:16:30;13.90;99.90
52034;DHT22;38045;52.988;6.536;2023-03-30T14:21:41;13.90;99.90
52034;DHT22;38045;52.988;6.536;2023-03-30T14:24:17;13.90;99.90
52034;DHT22;38045;52.988;6.536;2023-03-30T14:26:45;13.90;99.90
52034;DHT22;38045;52.988;6.536;2023-03-30T14:29:18;13.90;99.90
52034;DHT22;38045;52.988;6.536;2023-03-30T14:31:44;14.10;99.90
52034;DHT22;38045;52.988;6.536;2023-03-30T14:34:28;13.90;99.90
52034;DHT22;38045;52.988;6.536;2023-03-30T14:36:58;14.20;99.90
52034;DHT22;38045;52.988;6.536;2023-03-30T14:39:24;14.50;99.90
52034;DHT22;38045;52.988;6.536;2023-03-30T14:41:51;14.70;99.90
52034;DHT22;38045;52.988;6.536;2023-03-30T14:44:20;14.50;99.90
52034;DHT22;38045;52.988;6.536;2023-03-30T14:46:49;14.20;99.90
52034;DHT22;38045;52.988;6.536;2023-03-30T14:49:27;14.20;99.90
52034;DHT22;38045;52.988;6.536;2023-03-30T14:52:00;13.90;99.90
52034;DHT22;38045;52.988;6.536;2023-03-30T14:54:26;13.90;99.90
52034;DHT22;38045;52.988;6.536;2023-03-30T14:57:01;13.80;99.90
52034;DHT22;38045;52.988;6.536;2023-03-30T14:59:34;13.80;99.90
52034;DHT22;38045;52.988;6.536;2023-03-30T15:02:00;14.40;99.90
52034;DHT22;38045;52.988;6.536;2023-03-30T15:04:32;13.70;99.90
52034;DHT22;38045;52.988;6.536;2023-03-30T15:06:58;13.70;99.90
52034;DHT22;38045;52.988;6.536;2023-03-30T15:09:24;13.70;99.90
52034;DHT22;38045;52.988;6.536;2023-03-30T15:12:01;13.70;99.90
52034;DHT22;38045;52.988;6.536;2023-03-30T15:14:34;13.70;99.90
52034;DHT22;38045;52.988;6.536;2023-03-30T15:17:10;13.70;99.90
52034;DHT22;38045;52.988;6.536;2023-03-30T15:19:38;13.70;99.90
52034;DHT22;38045;52.988;6.536;2023-03-30T15:22:16;13.80;99.90
52034;DHT22;38045;52.988;6.536;2023-03-30T15:24:45;13.90;99.90
52034;DHT22;38045;52.988;6.536;2023-03-30T15:27:14;13.90;99.90
52034;DHT22;38045;52.988;6.536;2023-03-30T15:29:41;13.90;99.90
52034;DHT22;38045;52.988;6.536;2023-03-30T15:32:19;13.90;99.90
52034;DHT22;38045;52.988;6.536;2023-03-30T15:37:53;13.90;99.90
52034;DHT22;38045;52.988;6.536;2023-03-30T15:40:29;13.90;99.90
52034;DHT22;38045;52.988;6.536;2023-03-30T15:43:25;13.90;99.90
52034;DHT22;38045;52.988;6.536;2023-03-30T15:46:05;13.90;99.90
52034;DHT22;38045;52.988;6.536;2023-03-30T15:48:40;13.90;99.90
52034;DHT22;38045;52.988;6.536;2023-03-30T15:51:12;13.90;99.90
52034;DHT22;38045;52.988;6.536;2023-03-30T15:53:51;13.90;99.90
52034;DHT22;38045;52.988;6.536;2023-03-30T15:56:28;14.00;99.90
52034;DHT22;38045;52.988;6.536;2023-03-30T15:58:56;13.80;99.90
52034;DHT22;38045;52.988;6.536;2023-03-30T16:01:22;13.80;99.90
52034;DHT22;38045;52.988;6.536;2023-03-30T16:04:06;13.70;99.90
52034;DHT22;38045;52.988;6.536;2023-03-30T16:06:31;13.60;99.90
52034;DHT22;38045;52.988;6.536;2023-03-30T16:08:57;13.60;99.90
52034;DHT22;38045;52.988;6.536;2023-03-30T16:11:23;13.70;99.90
52034;DHT22;38045;52.988;6.536;2023-03-30T16:13:51;13.60;99.90
52034;DHT22;38045;52.988;6.536;2023-03-30T16:16:17;13.50;99.90
52034;DHT22;38045;52.988;6.536;2023-03-30T16:18:43;13.50;99.90
52034;DHT22;38045;52.988;6.536;2023-03-30T16:21:09;13.40;99.90
52034;DHT22;38045;52.988;6.536;2023-03-30T16:23:37;13.50;99.90
52034;DHT22;38045;52.988;6.536;2023-03-30T16:26:04;13.50;99.90
52034;DHT22;38045;52.988;6.536;2023-03-30T16:28:29;13.50;99.90
52034;DHT22;38045;52.988;6.536;2023-03-30T16:30:56;13.40;99.90
52034;DHT22;38045;52.988;6.536;2023-03-30T16:33:24;13.40;99.90
52034;DHT22;38045;52.988;6.536;2023-03-30T16:35:50;13.40;99.90
52034;DHT22;38045;52.988;6.536;2023-03-30T16:38:16;13.40;99.90
52034;DHT22;38045;52.988;6.536;2023-03-30T16:40:54;13.30;99.90
52034;DHT22;38045;52.988;6.536;2023-03-30T16:43:20;13.20;99.90
52034;DHT22;38045;52.988;6.536;2023-03-30T16:45:46;13.20;99.90
52034;DHT22;38045;52.988;6.536;2023-03-30T16:48:12;13.20;99.90
52034;DHT22;38045;52.988;6.536;2023-03-30T16:50:58;13.10;99.90
52034;DHT22;38045;52.988;6.536;2023-03-30T16:53:24;13.10;99.90
52034;DHT22;38045;52.988;6.536;2023-03-30T16:55:49;13.10;99.90
52034;DHT22;38045;52.988;6.536;2023-03-30T16:58:15;13.00;99.90
52034;DHT22;38045;52.988;6.536;2023-03-30T17:00:44;12.90;99.90
52034;DHT22;38045;52.988;6.536;2023-03-30T17:03:10;12.90;99.90
52034;DHT22;38045;52.988;6.536;2023-03-30T17:05:36;12.80;99.90
52034;DHT22;38045;52.988;6.536;2023-03-30T17:08:13;12.80;99.90
52034;DHT22;38045;52.988;6.536;2023-03-30T17:10:40;12.80;99.90
52034;DHT22;38045;52.988;6.536;2023-03-30T17:13:06;12.80;99.90
52034;DHT22;38045;52.988;6.536;2023-03-30T17:15:33;12.80;99.90
52034;DHT22;38045;52.988;6.536;2023-03-30T17:18:03;12.80;99.90
52034;DHT22;38045;52.988;6.536;2023-03-30T17:20:38;12.80;99.90
52034;DHT22;38045;52.988;6.536;2023-03-30T17:23:04;12.80;99.90
52034;DHT22;38045;52.988;6.536;2023-03-30T17:25:30;12.80;99.90
52034;DHT22;38045;52.988;6.536;2023-03-30T17:27:56;12.70;99.90
52034;DHT22;38045;52.988;6.536;2023-03-30T17:30:25;12.70;99.90
52034;DHT22;38045;52.988;6.536;2023-03-30T17:32:51;12.70;99.90
52034;DHT22;38045;52.988;6.536;2023-03-30T17:35:20;12.70;99.90
52034;DHT22;38045;52.988;6.536;2023-03-30T17:37:46;12.70;99.90
52034;DHT22;38045;52.988;6.536;2023-03-30T17:40:18;12.70;99.90
52034;DHT22;38045;52.988;6.536;2023-03-30T17:42:44;12.70;99.90
52034;DHT22;38045;52.988;6.536;2023-03-30T17:45:12;12.70;99.90
52034;DHT22;38045;52.988;6.536;2023-03-30T17:47:38;12.60;99.90
52034;DHT22;38045;52.988;6.536;2023-03-30T17:52:45;12.60;99.90
52034;DHT22;38045;52.988;6.536;2023-03-30T17:55:12;12.60;99.90
52034;DHT22;38045;52.988;6.536;2023-03-30T17:57:37;12.60;99.90
52034;DHT22;38045;52.988;6.536;2023-03-30T18:00:15;12.50;99.90
52034;DHT22;38045;52.988;6.536;2023-03-30T18:02:41;12.50;99.90
52034;DHT22;38045;52.988;6.536;2023-03-30T18:05:07;12.50;99.90
52034;DHT22;38045;52.988;6.536;2023-03-30T18:07:33;12.50;99.90
52034;DHT22;38045;52.988;6.536;2023-03-30T18:09:58;12.50;99.90
52034;DHT22;38045;52.988;6.536;2023-03-30T18:12:24;12.50;99.90
52034;DHT22;38045;52.988;6.536;2023-03-30T18:14:49;12.40;99.90
52034;DHT22;38045;52.988;6.536;2023-03-30T18:17:16;12.50;99.90